createdAt,value
2018-07-22T00:00:10.035Z,0.00
2018-07-22T00:01:10.021Z,0.00
2018-07-22T00:02:10.008Z,0.00
2018-07-22T00:03:09.995Z,0.00
2018-07-22T00:04:09.982Z,0.00
2018-07-22T00:05:09.970Z,0.00
2018-07-22T00:06:09.957Z,0.00
2018-07-22T00:07:09.942Z,0.00
2018-07-22T00:08:09.930Z,0.00
2018-07-22T00:09:09.924Z,0.00
2018-07-22T00:10:09.907Z,0.00
2018-07-22T00:11:09.891Z,0.00
2018-07-22T00:12:09.878Z,0.00
2018-07-22T00:13:09.867Z,0.00
2018-07-22T00:14:09.884Z,0.00
2018-07-22T00:15:09.838Z,0.00
2018-07-22T00:16:09.824Z,0.00
2018-07-22T00:17:09.812Z,0.00
2018-07-22T00:18:09.797Z,0.00
2018-07-22T00:19:09.786Z,0.00
2018-07-22T00:20:09.780Z,0.00
2018-07-22T00:21:09.758Z,0.00
2018-07-22T00:22:09.744Z,0.00
2018-07-22T00:23:09.734Z,0.00
2018-07-22T00:24:09.721Z,0.00
2018-07-22T00:25:09.706Z,0.00
2018-07-22T00:26:09.694Z,0.00
2018-07-22T00:27:09.681Z,0.00
2018-07-22T00:28:09.671Z,0.00
2018-07-22T00:29:09.659Z,0.00
2018-07-22T00:30:09.643Z,0.00
2018-07-22T00:31:09.630Z,0.00
2018-07-22T00:32:09.618Z,0.00
2018-07-22T00:33:09.602Z,0.00
2018-07-22T00:34:09.592Z,0.00
2018-07-22T00:35:09.576Z,0.00
2018-07-22T00:36:09.561Z,0.00
2018-07-22T00:37:09.547Z,0.00
2018-07-22T00:38:09.534Z,0.00
2018-07-22T00:39:09.521Z,0.00
2018-07-22T00:40:09.513Z,0.00
2018-07-22T00:41:09.494Z,0.00
2018-07-22T00:42:09.483Z,0.00
2018-07-22T00:43:09.467Z,0.00
2018-07-22T00:44:09.457Z,0.00
2018-07-22T00:45:09.442Z,0.00
2018-07-22T00:46:09.427Z,0.00
2018-07-22T00:47:09.417Z,0.00
2018-07-22T00:48:09.403Z,0.00
2018-07-22T00:49:09.385Z,0.00
2018-07-22T00:50:09.373Z,0.00
2018-07-22T00:51:09.361Z,0.00
2018-07-22T00:52:09.347Z,0.00
2018-07-22T00:53:09.335Z,0.00
2018-07-22T00:54:09.320Z,0.00
2018-07-22T00:55:09.318Z,0.00
2018-07-22T00:56:09.291Z,0.00
2018-07-22T00:57:09.283Z,0.00
2018-07-22T00:58:09.266Z,0.00
2018-07-22T00:59:09.251Z,0.00
2018-07-22T01:00:09.354Z,0.00
2018-07-22T01:01:09.224Z,0.00
2018-07-22T01:02:09.213Z,0.00
2018-07-22T01:03:09.198Z,0.00
2018-07-22T01:04:09.187Z,0.00
2018-07-22T01:05:09.171Z,0.00
2018-07-22T01:06:09.157Z,0.00
2018-07-22T01:07:09.143Z,0.00
2018-07-22T01:08:09.138Z,0.00
2018-07-22T01:09:09.116Z,0.00
2018-07-22T01:10:09.108Z,0.00
2018-07-22T01:11:09.095Z,0.00
2018-07-22T01:12:09.076Z,0.00
2018-07-22T01:13:09.061Z,0.00
2018-07-22T01:14:09.047Z,0.00
2018-07-22T01:15:09.035Z,0.00
2018-07-22T01:16:09.021Z,0.00
2018-07-22T01:17:09.007Z,0.00
2018-07-22T01:18:08.994Z,0.00
2018-07-22T01:19:08.981Z,0.00
2018-07-22T01:20:08.966Z,0.00
2018-07-22T01:21:08.951Z,0.00
2018-07-22T01:22:08.941Z,0.00
2018-07-22T01:23:08.928Z,0.00
2018-07-22T01:24:08.937Z,0.00
2018-07-22T01:25:08.896Z,0.00
2018-07-22T01:26:08.883Z,0.00
2018-07-22T01:27:08.870Z,0.00
2018-07-22T01:28:08.857Z,0.00
2018-07-22T01:29:08.841Z,0.00
2018-07-22T01:30:08.829Z,0.00
2018-07-22T01:31:08.814Z,0.00
2018-07-22T01:32:08.801Z,0.00
2018-07-22T01:33:08.787Z,0.00
2018-07-22T01:34:08.773Z,0.00
2018-07-22T01:35:08.759Z,0.00
2018-07-22T01:36:08.751Z,0.00
2018-07-22T01:37:08.732Z,0.00
2018-07-22T01:38:08.717Z,0.00
2018-07-22T01:39:08.703Z,0.00
2018-07-22T01:40:08.695Z,0.00
2018-07-22T01:41:08.679Z,0.00
2018-07-22T01:42:08.661Z,0.00
2018-07-22T01:43:08.697Z,0.00
2018-07-22T01:44:08.635Z,0.00
2018-07-22T01:45:08.620Z,0.00
2018-07-22T01:46:08.606Z,0.00
2018-07-22T01:47:08.599Z,0.00
2018-07-22T01:48:08.580Z,0.00
2018-07-22T01:49:08.567Z,0.00
2018-07-22T01:50:08.551Z,0.00
2018-07-22T01:51:08.538Z,0.00
2018-07-22T01:52:08.524Z,0.00
2018-07-22T01:53:08.511Z,0.00
2018-07-22T01:54:08.496Z,0.00
2018-07-22T01:55:08.484Z,0.00
2018-07-22T01:56:08.475Z,0.00
2018-07-22T01:57:08.455Z,0.00
2018-07-22T01:58:08.441Z,0.00
2018-07-22T01:59:08.427Z,0.00
2018-07-22T02:00:08.413Z,0.00
2018-07-22T02:01:08.401Z,0.00
2018-07-22T02:02:08.385Z,0.00
2018-07-22T02:03:08.372Z,0.00
2018-07-22T02:04:08.359Z,0.00
2018-07-22T02:05:08.343Z,0.00
2018-07-22T02:06:08.338Z,0.00
2018-07-22T02:07:08.318Z,0.00
2018-07-22T02:08:08.302Z,0.00
2018-07-22T02:09:08.288Z,0.00
2018-07-22T02:10:08.273Z,0.00
2018-07-22T02:11:08.261Z,0.00
2018-07-22T02:12:08.250Z,0.00
2018-07-22T02:13:08.230Z,0.00
2018-07-22T02:14:08.219Z,0.00
2018-07-22T02:15:08.205Z,0.00
2018-07-22T02:16:08.191Z,0.00
2018-07-22T02:17:08.178Z,0.00
2018-07-22T02:18:08.163Z,0.00
2018-07-22T02:19:08.148Z,0.00
2018-07-22T02:20:08.137Z,0.00
2018-07-22T02:21:08.121Z,0.00
2018-07-22T02:22:08.110Z,0.00
2018-07-22T02:23:08.091Z,0.00
2018-07-22T02:24:08.080Z,0.00
2018-07-22T02:25:08.065Z,0.00
2018-07-22T02:26:08.050Z,0.00
2018-07-22T02:27:08.040Z,0.00
2018-07-22T02:28:08.027Z,0.00
2018-07-22T02:29:08.008Z,0.00
2018-07-22T02:30:08.001Z,0.00
2018-07-22T02:31:07.979Z,0.00
2018-07-22T02:32:07.966Z,0.00
2018-07-22T02:33:07.955Z,4.00
2018-07-22T02:34:07.941Z,4.00
2018-07-22T02:35:07.925Z,4.00
2018-07-22T02:36:07.913Z,0.00
2018-07-22T02:37:07.899Z,0.00
2018-07-22T02:38:07.880Z,0.00
2018-07-22T02:39:07.866Z,4.00
2018-07-22T02:40:07.852Z,4.00
2018-07-22T02:41:07.839Z,4.00
2018-07-22T02:42:07.824Z,4.00
2018-07-22T02:43:07.809Z,4.00
2018-07-22T02:44:07.795Z,8.00
2018-07-22T02:45:07.781Z,4.00
2018-07-22T02:46:07.769Z,8.00
2018-07-22T02:47:07.757Z,8.00
2018-07-22T02:48:07.743Z,12.00
2018-07-22T02:49:07.726Z,12.00
2018-07-22T02:50:07.711Z,12.00
2018-07-22T02:51:07.695Z,12.00
2018-07-22T02:52:07.681Z,16.00
2018-07-22T02:53:07.667Z,16.00
2018-07-22T02:54:07.660Z,20.00
2018-07-22T02:55:07.638Z,24.00
2018-07-22T02:56:07.624Z,24.00
2018-07-22T02:57:07.609Z,24.00
2018-07-22T02:58:07.596Z,28.00
2018-07-22T02:59:07.580Z,32.00
2018-07-22T03:00:07.567Z,32.00
2018-07-22T03:01:07.552Z,40.00
2018-07-22T03:02:07.536Z,40.00
2018-07-22T03:03:07.525Z,44.00
2018-07-22T03:04:07.511Z,48.00
2018-07-22T03:05:07.495Z,52.00
2018-07-22T03:06:07.479Z,60.00
2018-07-22T03:07:07.468Z,60.00
2018-07-22T03:08:07.452Z,64.00
2018-07-22T03:09:07.436Z,68.00
2018-07-22T03:10:07.427Z,72.00
2018-07-22T03:11:07.409Z,80.00
2018-07-22T03:12:07.393Z,84.00
2018-07-22T03:13:07.381Z,88.00
2018-07-22T03:14:07.387Z,96.00
2018-07-22T03:15:07.349Z,104.00
2018-07-22T03:16:07.338Z,112.00
2018-07-22T03:17:07.323Z,120.00
2018-07-22T03:18:07.313Z,124.00
2018-07-22T03:19:07.294Z,132.00
2018-07-22T03:20:07.277Z,140.00
2018-07-22T03:21:07.267Z,152.00
2018-07-22T03:22:07.254Z,156.00
2018-07-22T03:23:07.234Z,168.00
2018-07-22T03:24:07.221Z,176.00
2018-07-22T03:25:07.208Z,188.00
2018-07-22T03:26:07.193Z,196.00
2018-07-22T03:27:07.177Z,208.00
2018-07-22T03:28:07.163Z,220.00
2018-07-22T03:29:07.148Z,232.00
2018-07-22T03:30:07.134Z,240.00
2018-07-22T03:31:07.119Z,252.00
2018-07-22T03:32:07.109Z,268.00
2018-07-22T03:33:07.091Z,280.00
2018-07-22T03:34:07.078Z,296.00
2018-07-22T03:35:07.062Z,312.00
2018-07-22T03:36:07.046Z,324.00
2018-07-22T03:37:07.031Z,340.00
2018-07-22T03:38:07.020Z,352.00
2018-07-22T03:39:07.003Z,368.00
2018-07-22T03:40:06.987Z,388.00
2018-07-22T03:41:06.973Z,408.00
2018-07-22T03:42:06.958Z,428.00
2018-07-22T03:43:06.945Z,444.00
2018-07-22T03:44:06.930Z,464.00
2018-07-22T03:45:06.914Z,484.00
2018-07-22T03:46:06.899Z,496.00
2018-07-22T03:47:06.888Z,512.00
2018-07-22T03:48:06.873Z,528.00
2018-07-22T03:49:06.856Z,536.00
2018-07-22T03:50:06.842Z,548.00
2018-07-22T03:51:06.828Z,548.00
2018-07-22T03:52:06.813Z,560.00
2018-07-22T03:53:06.803Z,576.00
2018-07-22T03:54:06.784Z,596.00
2018-07-22T03:55:06.769Z,616.00
2018-07-22T03:56:06.754Z,636.00
2018-07-22T03:57:06.742Z,656.00
2018-07-22T03:58:06.726Z,676.00
2018-07-22T03:59:06.713Z,696.00
2018-07-22T04:00:06.697Z,712.00
2018-07-22T04:01:06.685Z,728.00
2018-07-22T04:02:06.665Z,740.00
2018-07-22T04:03:06.655Z,756.00
2018-07-22T04:04:06.637Z,776.00
2018-07-22T04:05:06.623Z,800.00
2018-07-22T04:06:06.611Z,824.00
2018-07-22T04:07:06.679Z,848.00
2018-07-22T04:08:06.580Z,872.00
2018-07-22T04:09:06.565Z,900.00
2018-07-22T04:10:06.550Z,924.00
2018-07-22T04:11:06.537Z,956.00
2018-07-22T04:12:06.522Z,996.00
2018-07-22T04:13:06.510Z,1028.00
2018-07-22T04:14:06.491Z,1068.00
2018-07-22T04:15:06.479Z,1104.00
2018-07-22T04:16:06.463Z,1128.00
2018-07-22T04:17:06.448Z,1160.00
2018-07-22T04:18:06.434Z,1180.00
2018-07-22T04:19:06.421Z,1204.00
2018-07-22T04:20:06.405Z,1224.00
2018-07-22T04:21:06.390Z,1244.00
2018-07-22T04:22:06.379Z,1272.00
2018-07-22T04:23:06.362Z,1308.00
2018-07-22T04:24:06.348Z,1344.00
2018-07-22T04:25:06.332Z,1376.00
2018-07-22T04:26:06.320Z,1408.00
2018-07-22T04:27:06.303Z,1440.00
2018-07-22T04:28:06.289Z,1468.00
2018-07-22T04:29:06.281Z,1496.00
2018-07-22T04:30:06.259Z,1524.00
2018-07-22T04:31:06.245Z,1556.00
2018-07-22T04:32:06.235Z,1584.00
2018-07-22T04:33:06.220Z,1608.00
2018-07-22T04:34:06.202Z,1636.00
2018-07-22T04:35:06.192Z,1660.00
2018-07-22T04:36:06.182Z,1688.00
2018-07-22T04:37:06.160Z,1716.00
2018-07-22T04:38:06.149Z,1740.00
2018-07-22T04:39:06.130Z,1764.00
2018-07-22T04:40:06.118Z,1784.00
2018-07-22T04:41:06.103Z,1812.00
2018-07-22T04:42:06.090Z,1836.00
2018-07-22T04:43:06.071Z,1872.00
2018-07-22T04:44:06.063Z,1908.00
2018-07-22T04:45:06.047Z,1952.00
2018-07-22T04:46:06.033Z,1988.00
2018-07-22T04:47:06.017Z,2020.00
2018-07-22T04:48:06.004Z,2052.00
2018-07-22T04:49:05.987Z,2080.00
2018-07-22T04:50:05.972Z,2108.00
2018-07-22T04:51:05.961Z,2140.00
2018-07-22T04:52:05.945Z,2172.00
2018-07-22T04:53:05.932Z,2204.00
2018-07-22T04:54:05.918Z,2240.00
2018-07-22T04:55:05.904Z,2268.00
2018-07-22T04:56:05.889Z,2268.00
2018-07-22T04:57:05.874Z,2300.00
2018-07-22T04:58:05.865Z,2344.00
2018-07-22T04:59:05.846Z,2388.00
2018-07-22T05:00:05.833Z,2432.00
2018-07-22T05:01:05.822Z,2476.00
2018-07-22T05:02:05.818Z,2528.00
2018-07-22T05:03:05.792Z,2576.00
2018-07-22T05:04:05.790Z,2616.00
2018-07-22T05:05:05.774Z,2652.00
2018-07-22T05:06:05.751Z,2688.00
2018-07-22T05:07:05.735Z,2724.00
2018-07-22T05:08:05.721Z,2768.00
2018-07-22T05:09:05.708Z,2816.00
2018-07-22T05:10:05.697Z,2852.00
2018-07-22T05:11:05.680Z,2892.00
2018-07-22T05:12:05.671Z,2932.00
2018-07-22T05:13:05.653Z,2964.00
2018-07-22T05:14:05.638Z,3000.00
2018-07-22T05:15:05.630Z,3040.00
2018-07-22T05:16:05.613Z,3072.00
2018-07-22T05:17:05.600Z,3112.00
2018-07-22T05:18:05.588Z,3148.00
2018-07-22T05:19:05.574Z,3188.00
2018-07-22T05:20:05.559Z,3220.00
2018-07-22T05:21:05.548Z,3256.00
2018-07-22T05:22:05.531Z,3304.00
2018-07-22T05:23:05.516Z,3348.00
2018-07-22T05:24:05.507Z,3392.00
2018-07-22T05:25:05.490Z,3440.00
2018-07-22T05:26:05.478Z,3484.00
2018-07-22T05:27:05.468Z,3512.00
2018-07-22T05:28:05.450Z,3544.00
2018-07-22T05:29:05.438Z,3568.00
2018-07-22T05:30:05.429Z,3592.00
2018-07-22T05:31:05.412Z,3620.00
2018-07-22T05:32:05.397Z,3644.00
2018-07-22T05:33:05.384Z,3656.00
2018-07-22T05:34:05.372Z,3672.00
2018-07-22T05:35:05.357Z,3688.00
2018-07-22T05:36:05.366Z,3716.00
2018-07-22T05:37:05.331Z,3756.00
2018-07-22T05:38:05.319Z,3800.00
2018-07-22T05:39:05.309Z,3848.00
2018-07-22T05:40:05.292Z,3900.00
2018-07-22T05:41:05.279Z,3948.00
2018-07-22T05:42:05.319Z,4000.00
2018-07-22T05:43:05.254Z,4060.00
2018-07-22T05:44:05.242Z,4116.00
2018-07-22T05:45:05.229Z,4172.00
2018-07-22T05:46:05.214Z,4232.00
2018-07-22T05:47:05.201Z,4284.00
2018-07-22T05:48:05.189Z,4332.00
2018-07-22T05:49:05.176Z,4388.00
2018-07-22T05:50:05.163Z,4440.00
2018-07-22T05:51:05.155Z,4500.00
2018-07-22T05:52:05.136Z,4560.00
2018-07-22T05:53:05.126Z,4620.00
2018-07-22T05:54:05.156Z,4676.00
2018-07-22T05:55:05.100Z,4732.00
2018-07-22T05:56:05.092Z,4780.00
2018-07-22T05:57:05.072Z,4832.00
2018-07-22T05:58:05.062Z,4872.00
2018-07-22T05:59:05.049Z,4904.00
2018-07-22T06:00:05.037Z,4964.00
2018-07-22T06:01:05.026Z,5044.00
2018-07-22T06:02:05.010Z,5132.00
2018-07-22T06:03:05.007Z,5212.00
2018-07-22T06:04:04.985Z,5268.00
2018-07-22T06:05:04.973Z,5296.00
2018-07-22T06:06:04.959Z,5296.00
2018-07-22T06:07:04.953Z,5284.00
2018-07-22T06:08:04.939Z,5260.00
2018-07-22T06:09:04.932Z,5208.00
2018-07-22T06:10:04.918Z,5132.00
2018-07-22T06:11:04.903Z,5044.00
2018-07-22T06:12:04.900Z,4976.00
2018-07-22T06:13:04.876Z,4912.00
2018-07-22T06:14:04.867Z,4864.00
2018-07-22T06:15:04.860Z,4832.00
2018-07-22T06:16:04.839Z,4804.00
2018-07-22T06:17:04.826Z,4780.00
2018-07-22T06:18:04.814Z,4772.00
2018-07-22T06:19:04.806Z,4772.00
2018-07-22T06:20:04.797Z,4788.00
2018-07-22T06:21:04.782Z,4816.00
2018-07-22T06:22:04.769Z,4848.00
2018-07-22T06:23:04.757Z,4884.00
2018-07-22T06:24:04.744Z,4924.00
2018-07-22T06:25:04.731Z,4980.00
2018-07-22T06:26:04.718Z,5028.00
2018-07-22T06:27:04.709Z,5072.00
2018-07-22T06:28:04.696Z,5076.00
2018-07-22T06:29:04.683Z,5056.00
2018-07-22T06:30:04.671Z,5032.00
2018-07-22T06:31:04.663Z,5028.00
2018-07-22T06:32:04.667Z,5080.00
2018-07-22T06:33:04.639Z,5148.00
2018-07-22T06:34:04.625Z,5236.00
2018-07-22T06:35:04.616Z,5308.00
2018-07-22T06:36:04.604Z,5376.00
2018-07-22T06:37:04.590Z,5420.00
2018-07-22T06:38:04.583Z,5444.00
2018-07-22T06:39:04.572Z,5460.00
2018-07-22T06:40:04.556Z,5496.00
2018-07-22T06:41:04.596Z,5560.00
2018-07-22T06:42:04.544Z,5644.00
2018-07-22T06:43:04.524Z,5744.00
2018-07-22T06:44:04.513Z,5832.00
2018-07-22T06:45:04.498Z,5920.00
2018-07-22T06:46:04.508Z,6004.00
2018-07-22T06:47:04.474Z,6092.00
2018-07-22T06:48:04.463Z,6204.00
2018-07-22T06:49:04.456Z,6348.00
2018-07-22T06:50:04.442Z,6504.00
2018-07-22T06:51:04.433Z,6680.00
2018-07-22T06:52:04.426Z,6888.00
2018-07-22T06:53:04.408Z,7104.00
2018-07-22T06:54:04.396Z,7292.00
2018-07-22T06:55:04.384Z,7440.00
2018-07-22T06:56:04.376Z,7492.00
2018-07-22T06:57:04.390Z,7520.00
2018-07-22T06:58:04.356Z,7552.00
2018-07-22T06:59:04.343Z,7600.00
2018-07-22T07:00:04.331Z,7700.00
2018-07-22T07:01:04.320Z,7832.00
2018-07-22T07:02:04.307Z,7996.00
2018-07-22T07:03:04.297Z,8180.00
2018-07-22T07:04:04.289Z,8380.00
2018-07-22T07:05:04.306Z,8648.00
2018-07-22T07:06:04.264Z,8876.00
2018-07-22T07:07:04.258Z,9044.00
2018-07-22T07:08:04.246Z,9148.00
2018-07-22T07:09:04.234Z,9252.00
2018-07-22T07:10:04.221Z,9348.00
2018-07-22T07:11:04.264Z,9436.00
2018-07-22T07:12:04.207Z,9524.00
2018-07-22T07:13:04.189Z,9588.00
2018-07-22T07:14:04.182Z,9588.00
2018-07-22T07:15:04.171Z,9384.00
2018-07-22T07:16:04.161Z,9024.00
2018-07-22T07:17:04.151Z,8632.00
2018-07-22T07:18:04.139Z,8448.00
2018-07-22T07:19:04.128Z,8596.00
2018-07-22T07:20:04.118Z,8904.00
2018-07-22T07:21:04.110Z,9120.00
2018-07-22T07:22:04.098Z,9148.00
2018-07-22T07:23:04.090Z,8900.00
2018-07-22T07:24:04.079Z,8620.00
2018-07-22T07:25:04.071Z,8440.00
2018-07-22T07:26:04.059Z,8328.00
2018-07-22T07:27:04.050Z,8264.00
2018-07-22T07:28:04.041Z,8228.00
2018-07-22T07:29:04.029Z,8208.00
2018-07-22T07:30:04.020Z,8212.00
2018-07-22T07:31:04.009Z,8196.00
2018-07-22T07:32:04.004Z,8116.00
2018-07-22T07:33:03.991Z,8044.00
2018-07-22T07:34:03.982Z,8008.00
2018-07-22T07:35:03.974Z,8012.00
2018-07-22T07:36:03.961Z,8048.00
2018-07-22T07:37:03.951Z,8064.00
2018-07-22T07:38:03.946Z,8052.00
2018-07-22T07:39:03.937Z,8076.00
2018-07-22T07:40:03.927Z,8080.00
2018-07-22T07:41:03.920Z,8080.00
2018-07-22T07:42:03.905Z,8124.00
2018-07-22T07:43:03.895Z,8192.00
2018-07-22T07:44:03.886Z,8200.00
2018-07-22T07:45:03.877Z,8112.00
2018-07-22T07:46:03.868Z,8000.00
2018-07-22T07:47:03.858Z,7892.00
2018-07-22T07:48:03.850Z,7648.00
2018-07-22T07:49:03.842Z,6868.00
2018-07-22T07:50:03.832Z,7720.00
2018-07-22T07:51:03.826Z,7780.00
2018-07-22T07:52:03.818Z,7916.00
2018-07-22T07:53:03.803Z,8116.00
2018-07-22T07:54:03.794Z,8352.00
2018-07-22T07:55:03.784Z,8560.00
2018-07-22T07:56:03.777Z,8756.00
2018-07-22T07:57:03.766Z,9008.00
2018-07-22T07:58:03.759Z,9332.00
2018-07-22T07:59:03.748Z,9784.00
2018-07-22T08:00:03.744Z,10252.00
2018-07-22T08:01:03.730Z,10580.00
2018-07-22T08:02:03.721Z,10916.00
2018-07-22T08:03:03.714Z,11280.00
2018-07-22T08:04:03.703Z,11656.00
2018-07-22T08:05:03.695Z,12168.00
2018-07-22T08:06:03.692Z,12812.00
2018-07-22T08:07:03.673Z,13416.00
2018-07-22T08:08:03.668Z,13628.00
2018-07-22T08:09:03.658Z,14224.00
2018-07-22T08:10:03.650Z,15648.00
2018-07-22T08:11:03.641Z,20800.00
2018-07-22T08:12:03.632Z,13096.00
2018-07-22T08:13:03.623Z,11428.00
2018-07-22T08:14:03.615Z,10992.00
2018-07-22T08:15:03.609Z,10944.00
2018-07-22T08:16:03.600Z,10956.00
2018-07-22T08:17:03.589Z,10968.00
2018-07-22T08:18:03.582Z,11060.00
2018-07-22T08:19:03.600Z,10848.00
2018-07-22T08:20:03.571Z,10576.00
2018-07-22T08:21:03.557Z,10472.00
2018-07-22T08:22:03.552Z,10484.00
2018-07-22T08:23:03.545Z,10656.00
2018-07-22T08:24:03.535Z,10944.00
2018-07-22T08:25:03.524Z,11244.00
2018-07-22T08:26:03.520Z,11320.00
2018-07-22T08:27:03.506Z,11208.00
2018-07-22T08:28:03.503Z,11152.00
2018-07-22T08:29:03.492Z,11208.00
2018-07-22T08:30:03.485Z,11132.00
2018-07-22T08:31:03.474Z,10964.00
2018-07-22T08:32:03.468Z,10828.00
2018-07-22T08:33:03.459Z,10800.00
2018-07-22T08:34:03.452Z,10832.00
2018-07-22T08:35:03.443Z,10932.00
2018-07-22T08:36:03.444Z,11028.00
2018-07-22T08:37:03.434Z,11024.00
2018-07-22T08:38:03.421Z,10752.00
2018-07-22T08:39:03.512Z,10356.00
2018-07-22T08:40:03.409Z,10036.00
2018-07-22T08:41:03.397Z,9888.00
2018-07-22T08:42:03.389Z,10044.00
2018-07-22T08:43:03.379Z,10500.00
2018-07-22T08:44:03.382Z,11056.00
2018-07-22T08:45:03.365Z,11728.00
2018-07-22T08:46:03.363Z,12384.00
2018-07-22T08:47:03.350Z,13016.00
2018-07-22T08:48:03.346Z,13792.00
2018-07-22T08:49:03.333Z,14548.00
2018-07-22T08:50:03.324Z,15380.00
2018-07-22T08:51:03.317Z,17216.00
2018-07-22T08:52:03.315Z,20448.00
2018-07-22T08:53:03.305Z,24992.00
2018-07-22T08:54:03.300Z,27360.00
2018-07-22T08:55:03.289Z,33824.00
2018-07-22T08:56:03.280Z,36096.00
2018-07-22T08:57:03.272Z,31552.00
2018-07-22T08:58:03.270Z,22784.00
2018-07-22T08:59:03.293Z,20704.00
2018-07-22T09:00:03.254Z,19392.00
2018-07-22T09:01:03.247Z,19168.00
2018-07-22T09:02:03.245Z,19296.00
2018-07-22T09:03:03.236Z,19104.00
2018-07-22T09:04:03.224Z,17152.00
2018-07-22T09:05:03.217Z,15688.00
2018-07-22T09:06:03.216Z,13916.00
2018-07-22T09:07:03.205Z,13312.00
2018-07-22T09:08:03.197Z,13112.00
2018-07-22T09:09:03.191Z,13160.00
2018-07-22T09:10:03.196Z,13224.00
2018-07-22T09:11:03.179Z,13368.00
2018-07-22T09:12:03.172Z,13452.00
2018-07-22T09:13:03.166Z,13604.00
2018-07-22T09:14:03.159Z,13940.00
2018-07-22T09:16:03.147Z,14184.00
2018-07-22T09:17:03.138Z,14176.00
2018-07-22T09:18:03.151Z,14088.00
2018-07-22T09:20:03.122Z,13784.00
2018-07-22T09:21:03.114Z,13500.00
2018-07-22T09:22:03.108Z,13260.00
2018-07-22T09:23:03.102Z,13268.00
2018-07-22T09:24:03.099Z,13324.00
2018-07-22T09:25:03.293Z,13428.00
2018-07-22T09:26:03.407Z,13020.00
2018-07-22T09:27:03.145Z,12884.00
2018-07-22T09:28:03.074Z,12960.00
2018-07-22T09:29:03.064Z,13880.00
2018-07-22T09:30:03.059Z,14360.00
2018-07-22T09:31:03.057Z,15368.00
2018-07-22T09:32:03.046Z,15216.00
2018-07-22T09:33:03.046Z,16680.00
2018-07-22T09:34:03.033Z,21088.00
2018-07-22T09:35:03.028Z,20576.00
2018-07-22T09:36:19.860Z,21760.00
2018-07-22T09:37:03.014Z,21472.00
2018-07-22T09:38:03.014Z,21376.00
2018-07-22T09:39:03.003Z,23968.00
2018-07-22T09:40:03.002Z,28576.00
2018-07-22T09:41:02.991Z,32256.00
2018-07-22T09:42:02.986Z,23776.00
2018-07-22T09:43:02.980Z,24736.00
2018-07-22T09:44:02.972Z,24960.00
2018-07-22T09:45:02.967Z,25856.00
2018-07-22T09:46:02.962Z,25856.00
2018-07-22T09:47:02.959Z,25472.00
2018-07-22T09:48:02.974Z,25440.00
2018-07-22T09:49:02.945Z,26624.00
2018-07-22T09:50:02.940Z,28032.00
2018-07-22T09:51:02.937Z,27904.00
2018-07-22T09:52:02.930Z,28704.00
2018-07-22T09:53:02.934Z,28256.00
2018-07-22T09:54:02.922Z,28000.00
2018-07-22T09:55:02.925Z,26688.00
2018-07-22T09:56:02.911Z,23328.00
2018-07-22T09:57:02.911Z,21216.00
2018-07-22T09:58:02.905Z,20416.00
2018-07-22T09:59:02.900Z,20320.00
2018-07-22T10:00:02.892Z,21248.00
2018-07-22T10:01:02.887Z,20288.00
2018-07-22T10:02:02.883Z,19104.00
2018-07-22T10:03:02.879Z,18112.00
2018-07-22T10:04:02.875Z,17632.00
2018-07-22T10:05:02.870Z,17536.00
2018-07-22T10:06:02.865Z,17760.00
2018-07-22T10:07:02.865Z,18272.00
2018-07-22T10:08:02.857Z,19168.00
2018-07-22T10:09:02.853Z,20800.00
2018-07-22T10:10:02.849Z,23616.00
2018-07-22T10:11:02.882Z,32224.00
2018-07-22T10:12:02.842Z,48960.00
2018-07-22T10:13:02.838Z,40704.00
2018-07-22T10:14:02.837Z,41472.00
2018-07-22T10:15:02.884Z,34528.00
2018-07-22T10:16:02.826Z,25984.00
2018-07-22T10:17:02.817Z,24576.00
2018-07-22T10:18:02.816Z,34080.00
2018-07-22T10:19:02.809Z,29824.00
2018-07-22T10:20:02.808Z,30464.00
2018-07-22T10:21:02.804Z,37632.00
2018-07-22T10:22:02.801Z,39552.00
2018-07-22T10:23:02.797Z,60736.00
2018-07-22T10:24:02.792Z,56704.00
2018-07-22T10:25:02.793Z,56864.00
2018-07-22T10:26:02.782Z,60224.00
2018-07-22T10:27:02.780Z,74656.00
2018-07-22T10:28:02.779Z,80960.00
2018-07-22T10:29:02.776Z,84032.00
2018-07-22T10:30:02.775Z,84064.00
2018-07-22T10:31:02.768Z,84320.00
2018-07-22T10:32:02.767Z,81824.00
2018-07-22T10:33:02.764Z,65984.00
2018-07-22T10:34:02.760Z,59264.00
2018-07-22T10:35:02.757Z,65312.00
2018-07-22T10:36:02.754Z,50976.00
2018-07-22T10:37:02.753Z,39840.00
2018-07-22T10:38:02.750Z,36800.00
2018-07-22T10:39:02.752Z,30720.00
2018-07-22T10:40:02.746Z,33376.00
2018-07-22T10:41:02.745Z,36704.00
2018-07-22T10:42:02.742Z,41312.00
2018-07-22T10:43:02.740Z,48864.00
2018-07-22T10:44:02.741Z,38432.00
2018-07-22T10:45:02.734Z,61152.00
2018-07-22T10:46:02.733Z,39264.00
2018-07-22T10:47:02.729Z,39808.00
2018-07-22T10:48:02.739Z,51360.00
2018-07-22T10:49:02.728Z,74496.00
2018-07-22T10:50:02.726Z,45760.00
2018-07-22T10:51:02.762Z,30944.00
2018-07-22T10:52:02.727Z,25888.00
2018-07-22T10:53:02.720Z,25472.00
2018-07-22T10:54:02.723Z,25728.00
2018-07-22T10:55:02.716Z,24960.00
2018-07-22T10:56:02.715Z,29152.00
2018-07-22T10:57:02.713Z,26784.00
2018-07-22T10:58:02.709Z,25600.00
2018-07-22T10:59:02.710Z,9376.00
2018-07-22T11:00:02.713Z,9120.00
2018-07-22T11:01:02.706Z,9088.00
2018-07-22T11:02:02.701Z,8688.00
2018-07-22T11:03:02.705Z,8608.00
2018-07-22T11:04:02.703Z,8632.00
2018-07-22T11:05:02.697Z,8676.00
2018-07-22T11:06:02.695Z,8776.00
2018-07-22T11:07:02.691Z,9160.00
2018-07-22T11:08:02.690Z,9020.00
2018-07-22T11:09:02.688Z,8808.00
2018-07-22T11:10:02.684Z,8540.00
2018-07-22T11:11:02.682Z,8892.00
2018-07-22T11:12:02.680Z,9008.00
2018-07-22T11:13:02.675Z,8920.00
2018-07-22T11:14:02.671Z,8856.00
2018-07-22T11:15:02.675Z,9288.00
2018-07-22T11:16:02.682Z,9312.00
2018-07-22T11:17:02.665Z,9472.00
2018-07-22T11:18:02.669Z,9792.00
2018-07-22T11:19:02.664Z,10736.00
2018-07-22T11:20:02.657Z,10428.00
2018-07-22T11:21:02.741Z,10744.00
2018-07-22T11:22:02.658Z,11304.00
2018-07-22T11:23:02.648Z,11208.00
2018-07-22T11:24:02.650Z,11384.00
2018-07-22T11:25:02.643Z,11404.00
2018-07-22T11:26:02.638Z,10604.00
2018-07-22T11:27:02.637Z,10240.00
2018-07-22T11:28:02.630Z,9836.00
2018-07-22T11:29:02.660Z,9488.00
2018-07-22T11:30:02.631Z,9484.00
2018-07-22T11:31:02.622Z,9360.00
2018-07-22T11:32:02.621Z,9108.00
2018-07-22T11:33:02.617Z,8956.00
2018-07-22T11:34:02.615Z,8872.00
2018-07-22T11:35:02.605Z,9096.00
2018-07-22T11:36:02.642Z,9668.00
2018-07-22T11:37:02.597Z,10324.00
2018-07-22T11:38:02.594Z,11020.00
2018-07-22T11:39:02.592Z,11336.00
2018-07-22T11:40:02.595Z,11064.00
2018-07-22T11:41:02.587Z,10956.00
2018-07-22T11:42:02.583Z,10796.00
2018-07-22T11:43:02.577Z,10836.00
2018-07-22T11:44:02.575Z,11232.00
2018-07-22T11:45:02.568Z,10872.00
2018-07-22T11:46:02.569Z,10536.00
2018-07-22T11:47:02.560Z,10612.00
2018-07-22T11:48:02.557Z,10672.00
2018-07-22T11:49:02.557Z,11548.00
2018-07-22T11:50:02.549Z,12044.00
2018-07-22T11:51:02.547Z,12912.00
2018-07-22T11:52:02.540Z,12916.00
2018-07-22T11:53:02.537Z,12184.00
2018-07-22T11:54:02.546Z,12636.00
2018-07-22T11:55:02.528Z,13032.00
2018-07-22T11:56:02.528Z,13512.00
2018-07-22T11:57:02.522Z,13352.00
2018-07-22T11:58:02.519Z,14432.00
2018-07-22T11:59:02.512Z,14300.00
2018-07-22T12:00:02.559Z,14036.00
2018-07-22T12:01:02.510Z,14200.00
2018-07-22T12:02:02.512Z,15008.00
2018-07-22T12:03:02.503Z,15808.00
2018-07-22T12:04:02.493Z,16000.00
2018-07-22T12:05:02.490Z,16736.00
2018-07-22T12:06:02.526Z,16704.00
2018-07-22T12:07:02.484Z,16128.00
2018-07-22T12:08:02.477Z,15904.00
2018-07-22T12:09:02.475Z,15296.00
2018-07-22T12:10:02.473Z,14256.00
2018-07-22T12:11:02.468Z,14280.00
2018-07-22T12:12:02.465Z,14748.00
2018-07-22T12:13:02.462Z,20000.00
2018-07-22T12:14:02.459Z,24032.00
2018-07-22T12:15:02.456Z,39584.00
2018-07-22T12:16:02.449Z,38496.00
2018-07-22T12:17:02.442Z,41824.00
2018-07-22T12:18:02.439Z,31264.00
2018-07-22T12:19:02.437Z,23872.00